sensor_id;sensor_type;location;lat;lon;timestamp;P1;durP1;ratioP1;P2;durP2;ratioP2
3601;SDS011;1815;50.950;6.920;2023-04-28T00:01:15;5.90;;;2.70;;
3601;SDS011;1815;50.950;6.920;2023-04-28T00:03:41;6.30;;;2.23;;
3601;SDS011;1815;50.950;6.920;2023-04-28T00:06:07;2.93;;;2.13;;
3601;SDS011;1815;50.950;6.920;2023-04-28T00:08:33;3.47;;;2.23;;
3601;SDS011;1815;50.950;6.920;2023-04-28T00:10:58;5.40;;;2.40;;
3601;SDS011;1815;50.950;6.920;2023-04-28T00:13:25;4.50;;;2.63;;
3601;SDS011;1815;50.950;6.920;2023-04-28T00:15:51;6.33;;;2.27;;
3601;SDS011;1815;50.950;6.920;2023-04-28T00:18:21;2.73;;;1.87;;
3601;SDS011;1815;50.950;6.920;2023-04-28T00:20:46;5.40;;;2.07;;
3601;SDS011;1815;50.950;6.920;2023-04-28T00:23:12;2.83;;;1.73;;
3601;SDS011;1815;50.950;6.920;2023-04-28T00:25:38;3.70;;;2.30;;
3601;SDS011;1815;50.950;6.920;2023-04-28T00:28:03;5.70;;;2.97;;
3601;SDS011;1815;50.950;6.920;2023-04-28T00:30:29;4.63;;;2.37;;
3601;SDS011;1815;50.950;6.920;2023-04-28T00:32:55;3.37;;;2.40;;
3601;SDS011;1815;50.950;6.920;2023-04-28T00:35:21;4.60;;;2.43;;
3601;SDS011;1815;50.950;6.920;2023-04-28T00:37:47;3.10;;;1.93;;
3601;SDS011;1815;50.950;6.920;2023-04-28T00:40:13;2.50;;;2.23;;
3601;SDS011;1815;50.950;6.920;2023-04-28T00:42:38;5.70;;;3.07;;
3601;SDS011;1815;50.950;6.920;2023-04-28T00:45:04;3.10;;;2.10;;
3601;SDS011;1815;50.950;6.920;2023-04-28T00:47:35;4.60;;;2.30;;
3601;SDS011;1815;50.950;6.920;2023-04-28T00:50:02;6.70;;;2.63;;
3601;SDS011;1815;50.950;6.920;2023-04-28T00:52:30;4.10;;;2.53;;
3601;SDS011;1815;50.950;6.920;2023-04-28T00:54:56;2.93;;;1.77;;
3601;SDS011;1815;50.950;6.920;2023-04-28T00:57:22;5.30;;;2.80;;
3601;SDS011;1815;50.950;6.920;2023-04-28T00:59:48;5.37;;;2.43;;
3601;SDS011;1815;50.950;6.920;2023-04-28T01:02:13;4.10;;;2.13;;
3601;SDS011;1815;50.950;6.920;2023-04-28T01:04:45;3.88;;;2.13;;
3601;SDS011;1815;50.950;6.920;2023-04-28T01:07:13;4.37;;;2.17;;
3601;SDS011;1815;50.950;6.920;2023-04-28T01:09:39;3.80;;;2.15;;
3601;SDS011;1815;50.950;6.920;2023-04-28T01:12:06;4.80;;;2.27;;
3601;SDS011;1815;50.950;6.920;2023-04-28T01:14:41;5.97;;;2.67;;
3601;SDS011;1815;50.950;6.920;2023-04-28T01:17:07;4.20;;;2.10;;
3601;SDS011;1815;50.950;6.920;2023-04-28T01:19:33;5.30;;;2.60;;
3601;SDS011;1815;50.950;6.920;2023-04-28T01:21:59;3.60;;;2.13;;
3601;SDS011;1815;50.950;6.920;2023-04-28T01:24:25;5.20;;;2.30;;
3601;SDS011;1815;50.950;6.920;2023-04-28T01:26:51;4.33;;;2.67;;
3601;SDS011;1815;50.950;6.920;2023-04-28T01:29:16;3.80;;;2.70;;
3601;SDS011;1815;50.950;6.920;2023-04-28T01:31:42;4.00;;;3.10;;
3601;SDS011;1815;50.950;6.920;2023-04-28T01:34:08;4.30;;;2.42;;
3601;SDS011;1815;50.950;6.920;2023-04-28T01:36:35;3.78;;;2.50;;
3601;SDS011;1815;50.950;6.920;2023-04-28T01:39:01;4.07;;;2.30;;
3601;SDS011;1815;50.950;6.920;2023-04-28T01:41:26;3.80;;;2.50;;
3601;SDS011;1815;50.950;6.920;2023-04-28T01:43:52;4.07;;;2.90;;
3601;SDS011;1815;50.950;6.920;2023-04-28T01:46:18;4.70;;;2.80;;
3601;SDS011;1815;50.950;6.920;2023-04-28T01:48:43;3.70;;;2.20;;
3601;SDS011;1815;50.950;6.920;2023-04-28T01:51:11;5.47;;;2.92;;
3601;SDS011;1815;50.950;6.920;2023-04-28T01:53:37;4.68;;;3.60;;
3601;SDS011;1815;50.950;6.920;2023-04-28T01:56:03;4.63;;;2.60;;
3601;SDS011;1815;50.950;6.920;2023-04-28T01:58:28;5.63;;;2.67;;
3601;SDS011;1815;50.950;6.920;2023-04-28T02:00:54;3.75;;;2.45;;
3601;SDS011;1815;50.950;6.920;2023-04-28T02:03:21;3.65;;;3.05;;
3601;SDS011;1815;50.950;6.920;2023-04-28T02:05:47;5.20;;;2.60;;
3601;SDS011;1815;50.950;6.920;2023-04-28T02:08:13;4.80;;;2.42;;
3601;SDS011;1815;50.950;6.920;2023-04-28T02:10:39;3.93;;;2.23;;
3601;SDS011;1815;50.950;6.920;2023-04-28T02:13:05;4.40;;;3.10;;
3601;SDS011;1815;50.950;6.920;2023-04-28T02:15:31;5.57;;;3.33;;
3601;SDS011;1815;50.950;6.920;2023-04-28T02:17:57;6.30;;;3.30;;
3601;SDS011;1815;50.950;6.920;2023-04-28T02:20:22;5.83;;;3.00;;
3601;SDS011;1815;50.950;6.920;2023-04-28T02:22:48;3.30;;;2.30;;
3601;SDS011;1815;50.950;6.920;2023-04-28T02:25:14;3.83;;;3.10;;
3601;SDS011;1815;50.950;6.920;2023-04-28T02:27:40;5.00;;;3.47;;
3601;SDS011;1815;50.950;6.920;2023-04-28T02:30:06;4.20;;;2.90;;
3601;SDS011;1815;50.950;6.920;2023-04-28T02:32:32;5.75;;;3.10;;
3601;SDS011;1815;50.950;6.920;2023-04-28T02:34:58;4.50;;;2.47;;
3601;SDS011;1815;50.950;6.920;2023-04-28T02:37:25;7.40;;;4.43;;
3601;SDS011;1815;50.950;6.920;2023-04-28T02:39:50;7.43;;;4.00;;
3601;SDS011;1815;50.950;6.920;2023-04-28T02:42:16;5.23;;;3.63;;
3601;SDS011;1815;50.950;6.920;2023-04-28T02:44:42;5.50;;;4.00;;
3601;SDS011;1815;50.950;6.920;2023-04-28T02:47:08;4.33;;;3.03;;
3601;SDS011;1815;50.950;6.920;2023-04-28T02:49:33;6.03;;;3.03;;
3601;SDS011;1815;50.950;6.920;2023-04-28T02:51:59;4.67;;;2.87;;
3601;SDS011;1815;50.950;6.920;2023-04-28T02:54:26;5.57;;;3.50;;
3601;SDS011;1815;50.950;6.920;2023-04-28T02:56:53;4.63;;;2.47;;
3601;SDS011;1815;50.950;6.920;2023-04-28T02:59:20;6.00;;;3.20;;
3601;SDS011;1815;50.950;6.920;2023-04-28T03:01:46;5.20;;;3.00;;
3601;SDS011;1815;50.950;6.920;2023-04-28T03:04:12;6.60;;;3.65;;
3601;SDS011;1815;50.950;6.920;2023-04-28T03:06:38;4.53;;;3.55;;
3601;SDS011;1815;50.950;6.920;2023-04-28T03:09:04;5.28;;;3.40;;
3601;SDS011;1815;50.950;6.920;2023-04-28T03:11:31;6.25;;;2.88;;
3601;SDS011;1815;50.950;6.920;2023-04-28T03:13:57;5.77;;;4.00;;
3601;SDS011;1815;50.950;6.920;2023-04-28T03:16:23;3.83;;;3.40;;
3601;SDS011;1815;50.950;6.920;2023-04-28T03:18:49;7.50;;;3.40;;
3601;SDS011;1815;50.950;6.920;2023-04-28T03:21:14;6.93;;;3.27;;
3601;SDS011;1815;50.950;6.920;2023-04-28T03:23:40;7.67;;;2.87;;
3601;SDS011;1815;50.950;6.920;2023-04-28T03:26:06;4.15;;;2.78;;
3601;SDS011;1815;50.950;6.920;2023-04-28T03:28:32;3.90;;;3.20;;
3601;SDS011;1815;50.950;6.920;2023-04-28T03:30:58;4.50;;;3.33;;
3601;SDS011;1815;50.950;6.920;2023-04-28T03:33:24;4.47;;;3.20;;
3601;SDS011;1815;50.950;6.920;2023-04-28T03:35:51;3.13;;;2.25;;
3601;SDS011;1815;50.950;6.920;2023-04-28T03:38:18;7.13;;;3.28;;
3601;SDS011;1815;50.950;6.920;2023-04-28T03:40:45;5.22;;;3.08;;
3601;SDS011;1815;50.950;6.920;2023-04-28T03:43:10;6.17;;;3.13;;
3601;SDS011;1815;50.950;6.920;2023-04-28T03:45:59;4.25;;;2.45;;
3601;SDS011;1815;50.950;6.920;2023-04-28T03:48:26;5.75;;;3.55;;
3601;SDS011;1815;50.950;6.920;2023-04-28T03:50:52;5.87;;;3.30;;
3601;SDS011;1815;50.950;6.920;2023-04-28T03:53:18;4.73;;;3.30;;
3601;SDS011;1815;50.950;6.920;2023-04-28T03:55:43;5.07;;;4.37;;
3601;SDS011;1815;50.950;6.920;2023-04-28T03:58:10;5.88;;;3.10;;
3601;SDS011;1815;50.950;6.920;2023-04-28T04:00:36;3.97;;;3.40;;
3601;SDS011;1815;50.950;6.920;2023-04-28T04:03:02;5.27;;;4.40;;
3601;SDS011;1815;50.950;6.920;2023-04-28T04:05:27;11.27;;;4.50;;
3601;SDS011;1815;50.950;6.920;2023-04-28T04:07:53;6.50;;;4.00;;
3601;SDS011;1815;50.950;6.920;2023-04-28T04:10:19;7.30;;;3.63;;
3601;SDS011;1815;50.950;6.920;2023-04-28T04:12:46;6.93;;;4.30;;
3601;SDS011;1815;50.950;6.920;2023-04-28T04:15:12;5.43;;;3.67;;
3601;SDS011;1815;50.950;6.920;2023-04-28T04:17:38;4.82;;;3.45;;
3601;SDS011;1815;50.950;6.920;2023-04-28T04:20:05;5.45;;;4.18;;
3601;SDS011;1815;50.950;6.920;2023-04-28T04:22:32;5.80;;;4.38;;
3601;SDS011;1815;50.950;6.920;2023-04-28T04:24:57;5.10;;;3.60;;
3601;SDS011;1815;50.950;6.920;2023-04-28T04:27:24;5.60;;;3.40;;
3601;SDS011;1815;50.950;6.920;2023-04-28T04:29:50;3.55;;;3.13;;
3601;SDS011;1815;50.950;6.920;2023-04-28T04:32:16;4.33;;;3.93;;
3601;SDS011;1815;50.950;6.920;2023-04-28T04:34:41;4.33;;;3.40;;
3601;SDS011;1815;50.950;6.920;2023-04-28T04:37:08;7.00;;;3.83;;
3601;SDS011;1815;50.950;6.920;2023-04-28T04:39:39;4.38;;;3.83;;
3601;SDS011;1815;50.950;6.920;2023-04-28T04:42:04;5.43;;;3.90;;
3601;SDS011;1815;50.950;6.920;2023-04-28T04:44:38;4.45;;;3.63;;
3601;SDS011;1815;50.950;6.920;2023-04-28T04:47:08;5.45;;;4.55;;
3601;SDS011;1815;50.950;6.920;2023-04-28T04:49:35;7.43;;;3.58;;
3601;SDS011;1815;50.950;6.920;2023-04-28T04:52:01;6.97;;;4.03;;
3601;SDS011;1815;50.950;6.920;2023-04-28T04:54:28;7.70;;;4.60;;
3601;SDS011;1815;50.950;6.920;2023-04-28T04:56:56;6.28;;;4.13;;
3601;SDS011;1815;50.950;6.920;2023-04-28T04:59:42;4.75;;;4.35;;
3601;SDS011;1815;50.950;6.920;2023-04-28T05:02:12;7.03;;;3.10;;
3601;SDS011;1815;50.950;6.920;2023-04-28T05:04:38;5.27;;;3.80;;
3601;SDS011;1815;50.950;6.920;2023-04-28T05:07:05;7.47;;;4.70;;
3601;SDS011;1815;50.950;6.920;2023-04-28T05:09:32;5.55;;;3.20;;
3601;SDS011;1815;50.950;6.920;2023-04-28T05:11:58;5.97;;;4.00;;
3601;SDS011;1815;50.950;6.920;2023-04-28T05:14:24;5.43;;;4.80;;
3601;SDS011;1815;50.950;6.920;2023-04-28T05:16:51;5.05;;;3.30;;
3601;SDS011;1815;50.950;6.920;2023-04-28T05:19:31;5.95;;;3.83;;
3601;SDS011;1815;50.950;6.920;2023-04-28T05:21:57;5.77;;;4.20;;
3601;SDS011;1815;50.950;6.920;2023-04-28T05:24:25;5.22;;;4.15;;
3601;SDS011;1815;50.950;6.920;2023-04-28T05:26:51;7.60;;;4.20;;
3601;SDS011;1815;50.950;6.920;2023-04-28T05:29:19;5.68;;;4.80;;
3601;SDS011;1815;50.950;6.920;2023-04-28T05:31:45;5.32;;;4.20;;
3601;SDS011;1815;50.950;6.920;2023-04-28T05:34:12;9.77;;;5.47;;
3601;SDS011;1815;50.950;6.920;2023-04-28T05:36:38;3.80;;;3.40;;
3601;SDS011;1815;50.950;6.920;2023-04-28T05:39:07;7.38;;;3.90;;
3601;SDS011;1815;50.950;6.920;2023-04-28T05:41:33;4.83;;;4.40;;
3601;SDS011;1815;50.950;6.920;2023-04-28T05:44:01;5.93;;;4.75;;
3601;SDS011;1815;50.950;6.920;2023-04-28T05:46:27;4.57;;;3.60;;
3601;SDS011;1815;50.950;6.920;2023-04-28T05:48:53;7.40;;;4.63;;
3601;SDS011;1815;50.950;6.920;2023-04-28T05:51:19;5.50;;;4.22;;
3601;SDS011;1815;50.950;6.920;2023-04-28T05:53:46;7.82;;;4.00;;
3601;SDS011;1815;50.950;6.920;2023-04-28T05:56:14;6.18;;;4.43;;
3601;SDS011;1815;50.950;6.920;2023-04-28T05:58:41;4.72;;;4.30;;
3601;SDS011;1815;50.950;6.920;2023-04-28T06:01:11;5.95;;;4.55;;
3601;SDS011;1815;50.950;6.920;2023-04-28T06:03:38;9.20;;;4.40;;
3601;SDS011;1815;50.950;6.920;2023-04-28T06:06:06;3.47;;;3.15;;
3601;SDS011;1815;50.950;6.920;2023-04-28T06:08:32;8.13;;;3.25;;
3601;SDS011;1815;50.950;6.920;2023-04-28T06:10:58;6.00;;;4.43;;
3601;SDS011;1815;50.950;6.920;2023-04-28T06:13:24;6.87;;;4.20;;
3601;SDS011;1815;50.950;6.920;2023-04-28T06:15:50;8.00;;;5.37;;
3601;SDS011;1815;50.950;6.920;2023-04-28T06:18:16;7.22;;;5.20;;
3601;SDS011;1815;50.950;6.920;2023-04-28T06:20:42;5.50;;;4.10;;
3601;SDS011;1815;50.950;6.920;2023-04-28T06:23:08;6.43;;;3.72;;
3601;SDS011;1815;50.950;6.920;2023-04-28T06:25:40;8.98;;;4.22;;
3601;SDS011;1815;50.950;6.920;2023-04-28T06:28:05;7.47;;;3.80;;
3601;SDS011;1815;50.950;6.920;2023-04-28T06:30:32;5.13;;;4.50;;
3601;SDS011;1815;50.950;6.920;2023-04-28T06:33:01;8.10;;;4.28;;
3601;SDS011;1815;50.950;6.920;2023-04-28T06:35:27;6.13;;;4.57;;
3601;SDS011;1815;50.950;6.920;2023-04-28T06:37:53;8.73;;;4.37;;
3601;SDS011;1815;50.950;6.920;2023-04-28T06:40:19;5.15;;;4.35;;
3601;SDS011;1815;50.950;6.920;2023-04-28T06:42:50;4.97;;;4.28;;
3601;SDS011;1815;50.950;6.920;2023-04-28T06:45:24;4.43;;;3.80;;
3601;SDS011;1815;50.950;6.920;2023-04-28T06:47:49;5.30;;;4.07;;
3601;SDS011;1815;50.950;6.920;2023-04-28T06:50:16;6.72;;;4.60;;
3601;SDS011;1815;50.950;6.920;2023-04-28T06:52:42;6.60;;;4.10;;
3601;SDS011;1815;50.950;6.920;2023-04-28T06:55:08;5.67;;;4.70;;
3601;SDS011;1815;50.950;6.920;2023-04-28T06:57:34;4.82;;;3.88;;
3601;SDS011;1815;50.950;6.920;2023-04-28T07:00:00;7.25;;;4.63;;
3601;SDS011;1815;50.950;6.920;2023-04-28T07:02:26;6.43;;;4.80;;
3601;SDS011;1815;50.950;6.920;2023-04-28T07:04:52;5.27;;;4.10;;
3601;SDS011;1815;50.950;6.920;2023-04-28T07:07:18;5.07;;;3.70;;
3601;SDS011;1815;50.950;6.920;2023-04-28T07:09:44;5.20;;;4.63;;
3601;SDS011;1815;50.950;6.920;2023-04-28T07:12:09;7.67;;;3.60;;
3601;SDS011;1815;50.950;6.920;2023-04-28T07:14:35;5.50;;;3.90;;
3601;SDS011;1815;50.950;6.920;2023-04-28T07:17:01;6.87;;;4.70;;
3601;SDS011;1815;50.950;6.920;2023-04-28T07:19:27;8.18;;;4.82;;
3601;SDS011;1815;50.950;6.920;2023-04-28T07:21:52;6.03;;;4.70;;
3601;SDS011;1815;50.950;6.920;2023-04-28T07:24:18;8.13;;;4.70;;
3601;SDS011;1815;50.950;6.920;2023-04-28T07:26:44;6.65;;;5.32;;
3601;SDS011;1815;50.950;6.920;2023-04-28T07:29:10;5.50;;;4.67;;
3601;SDS011;1815;50.950;6.920;2023-04-28T07:31:37;7.43;;;4.10;;
3601;SDS011;1815;50.950;6.920;2023-04-28T07:34:03;5.20;;;4.57;;
3601;SDS011;1815;50.950;6.920;2023-04-28T07:36:29;5.97;;;4.70;;
3601;SDS011;1815;50.950;6.920;2023-04-28T07:38:55;5.33;;;4.83;;
3601;SDS011;1815;50.950;6.920;2023-04-28T07:41:21;5.63;;;4.90;;
3601;SDS011;1815;50.950;6.920;2023-04-28T07:43:48;5.97;;;4.10;;
3601;SDS011;1815;50.950;6.920;2023-04-28T07:46:14;4.40;;;4.00;;
3601;SDS011;1815;50.950;6.920;2023-04-28T07:48:42;5.33;;;4.40;;
3601;SDS011;1815;50.950;6.920;2023-04-28T07:51:08;4.67;;;3.83;;
3601;SDS011;1815;50.950;6.920;2023-04-28T07:53:33;5.63;;;4.53;;
3601;SDS011;1815;50.950;6.920;2023-04-28T07:56:00;3.60;;;3.27;;
3601;SDS011;1815;50.950;6.920;2023-04-28T07:58:26;6.67;;;4.90;;
3601;SDS011;1815;50.950;6.920;2023-04-28T08:00:52;5.47;;;4.90;;
3601;SDS011;1815;50.950;6.920;2023-04-28T08:03:18;5.10;;;4.60;;
3601;SDS011;1815;50.950;6.920;2023-04-28T08:05:44;7.07;;;4.33;;
3601;SDS011;1815;50.950;6.920;2023-04-28T08:08:10;4.93;;;4.23;;
3601;SDS011;1815;50.950;6.920;2023-04-28T08:10:35;4.27;;;3.87;;
3601;SDS011;1815;50.950;6.920;2023-04-28T08:13:04;5.90;;;5.30;;
3601;SDS011;1815;50.950;6.920;2023-04-28T08:15:30;5.00;;;4.30;;
3601;SDS011;1815;50.950;6.920;2023-04-28T08:17:56;6.90;;;3.90;;
3601;SDS011;1815;50.950;6.920;2023-04-28T08:20:21;4.67;;;4.17;;
3601;SDS011;1815;50.950;6.920;2023-04-28T08:22:47;7.57;;;4.55;;
3601;SDS011;1815;50.950;6.920;2023-04-28T08:25:13;4.83;;;4.37;;
3601;SDS011;1815;50.950;6.920;2023-04-28T08:27:38;5.73;;;4.07;;
3601;SDS011;1815;50.950;6.920;2023-04-28T08:30:07;6.03;;;4.03;;
3601;SDS011;1815;50.950;6.920;2023-04-28T08:32:34;6.13;;;3.30;;
3601;SDS011;1815;50.950;6.920;2023-04-28T08:35:00;7.83;;;3.87;;
3601;SDS011;1815;50.950;6.920;2023-04-28T08:37:26;5.20;;;3.83;;
3601;SDS011;1815;50.950;6.920;2023-04-28T08:39:52;8.03;;;4.40;;
3601;SDS011;1815;50.950;6.920;2023-04-28T08:42:29;8.93;;;4.00;;
3601;SDS011;1815;50.950;6.920;2023-04-28T08:44:58;5.37;;;4.87;;
3601;SDS011;1815;50.950;6.920;2023-04-28T08:47:32;8.80;;;5.60;;
3601;SDS011;1815;50.950;6.920;2023-04-28T08:50:08;10.63;;;5.50;;
3601;SDS011;1815;50.950;6.920;2023-04-28T08:52:36;4.23;;;3.40;;
3601;SDS011;1815;50.950;6.920;2023-04-28T08:55:07;5.30;;;4.57;;
3601;SDS011;1815;50.950;6.920;2023-04-28T08:57:38;6.10;;;4.60;;
3601;SDS011;1815;50.950;6.920;2023-04-28T09:00:08;5.00;;;4.50;;
3601;SDS011;1815;50.950;6.920;2023-04-28T09:02:35;5.10;;;4.37;;
3601;SDS011;1815;50.950;6.920;2023-04-28T09:05:02;7.90;;;5.30;;
3601;SDS011;1815;50.950;6.920;2023-04-28T09:07:31;6.60;;;5.03;;
3601;SDS011;1815;50.950;6.920;2023-04-28T09:12:46;6.80;;;5.70;;
3601;SDS011;1815;50.950;6.920;2023-04-28T09:15:32;7.47;;;5.43;;
3601;SDS011;1815;50.950;6.920;2023-04-28T09:18:00;6.50;;;5.53;;
3601;SDS011;1815;50.950;6.920;2023-04-28T09:20:30;4.93;;;4.47;;
3601;SDS011;1815;50.950;6.920;2023-04-28T09:23:11;6.27;;;4.73;;
3601;SDS011;1815;50.950;6.920;2023-04-28T09:25:36;7.40;;;5.70;;
3601;SDS011;1815;50.950;6.920;2023-04-28T09:28:18;6.00;;;4.47;;
3601;SDS011;1815;50.950;6.920;2023-04-28T09:30:46;5.00;;;4.17;;
3601;SDS011;1815;50.950;6.920;2023-04-28T09:33:12;7.43;;;5.40;;
3601;SDS011;1815;50.950;6.920;2023-04-28T09:35:38;6.23;;;5.63;;
3601;SDS011;1815;50.950;6.920;2023-04-28T09:38:05;6.97;;;5.97;;
3601;SDS011;1815;50.950;6.920;2023-04-28T09:40:31;8.00;;;5.90;;
3601;SDS011;1815;50.950;6.920;2023-04-28T09:42:58;6.10;;;5.40;;
3601;SDS011;1815;50.950;6.920;2023-04-28T09:45:24;7.27;;;5.63;;
3601;SDS011;1815;50.950;6.920;2023-04-28T09:47:51;6.13;;;5.53;;
3601;SDS011;1815;50.950;6.920;2023-04-28T09:50:17;7.57;;;5.73;;
3601;SDS011;1815;50.950;6.920;2023-04-28T09:52:44;6.53;;;5.90;;
3601;SDS011;1815;50.950;6.920;2023-04-28T09:55:20;5.30;;;4.80;;
3601;SDS011;1815;50.950;6.920;2023-04-28T09:57:47;6.90;;;6.20;;
3601;SDS011;1815;50.950;6.920;2023-04-28T10:00:15;9.70;;;6.47;;
3601;SDS011;1815;50.950;6.920;2023-04-28T10:02:42;7.63;;;6.33;;
3601;SDS011;1815;50.950;6.920;2023-04-28T10:05:09;9.90;;;6.37;;
3601;SDS011;1815;50.950;6.920;2023-04-28T10:07:35;6.40;;;5.73;;
3601;SDS011;1815;50.950;6.920;2023-04-28T10:10:01;7.13;;;6.20;;
3601;SDS011;1815;50.950;6.920;2023-04-28T10:12:28;7.37;;;6.67;;
3601;SDS011;1815;50.950;6.920;2023-04-28T10:14:54;9.33;;;5.90;;
3601;SDS011;1815;50.950;6.920;2023-04-28T10:17:21;7.20;;;5.67;;
3601;SDS011;1815;50.950;6.920;2023-04-28T10:19:49;6.90;;;6.20;;
3601;SDS011;1815;50.950;6.920;2023-04-28T10:25:28;6.23;;;5.30;;
3601;SDS011;1815;50.950;6.920;2023-04-28T10:28:03;9.43;;;6.87;;
3601;SDS011;1815;50.950;6.920;2023-04-28T10:30:30;8.53;;;7.67;;
3601;SDS011;1815;50.950;6.920;2023-04-28T10:38:03;6.83;;;6.17;;
3601;SDS011;1815;50.950;6.920;2023-04-28T10:40:42;6.57;;;5.97;;
3601;SDS011;1815;50.950;6.920;2023-04-28T10:43:14;6.40;;;5.13;;
3601;SDS011;1815;50.950;6.920;2023-04-28T10:45:58;6.07;;;5.47;;
3601;SDS011;1815;50.950;6.920;2023-04-28T11:08:44;7.10;;;4.67;;
3601;SDS011;1815;50.950;6.920;2023-04-28T11:11:11;5.60;;;5.00;;
3601;SDS011;1815;50.950;6.920;2023-04-28T11:13:41;5.60;;;4.10;;
3601;SDS011;1815;50.950;6.920;2023-04-28T11:16:07;5.33;;;4.83;;
3601;SDS011;1815;50.950;6.920;2023-04-28T11:18:47;7.70;;;5.43;;
3601;SDS011;1815;50.950;6.920;2023-04-28T11:21:20;5.70;;;4.47;;
3601;SDS011;1815;50.950;6.920;2023-04-28T11:23:47;9.70;;;5.57;;
3601;SDS011;1815;50.950;6.920;2023-04-28T11:26:13;6.20;;;5.67;;
3601;SDS011;1815;50.950;6.920;2023-04-28T11:28:47;6.13;;;5.53;;
3601;SDS011;1815;50.950;6.920;2023-04-28T11:31:15;5.67;;;5.10;;
3601;SDS011;1815;50.950;6.920;2023-04-28T11:36:39;4.07;;;3.67;;
3601;SDS011;1815;50.950;6.920;2023-04-28T11:39:06;4.80;;;4.30;;
3601;SDS011;1815;50.950;6.920;2023-04-28T11:41:34;4.90;;;4.40;;
3601;SDS011;1815;50.950;6.920;2023-04-28T11:46:53;4.70;;;4.10;;
3601;SDS011;1815;50.950;6.920;2023-04-28T11:49:22;5.77;;;5.20;;
3601;SDS011;1815;50.950;6.920;2023-04-28T11:51:49;5.33;;;4.83;;
3601;SDS011;1815;50.950;6.920;2023-04-28T11:54:19;6.07;;;5.23;;
3601;SDS011;1815;50.950;6.920;2023-04-28T11:56:47;6.23;;;5.00;;
3601;SDS011;1815;50.950;6.920;2023-04-28T11:59:13;4.60;;;4.20;;
3601;SDS011;1815;50.950;6.920;2023-04-28T12:01:48;4.90;;;3.70;;
3601;SDS011;1815;50.950;6.920;2023-04-28T12:04:29;4.27;;;3.80;;
3601;SDS011;1815;50.950;6.920;2023-04-28T12:09:41;4.50;;;4.10;;
3601;SDS011;1815;50.950;6.920;2023-04-28T12:12:08;5.20;;;4.00;;
3601;SDS011;1815;50.950;6.920;2023-04-28T12:14:54;5.63;;;3.80;;
3601;SDS011;1815;50.950;6.920;2023-04-28T12:17:27;3.70;;;3.00;;
3601;SDS011;1815;50.950;6.920;2023-04-28T12:19:59;3.47;;;3.17;;
3601;SDS011;1815;50.950;6.920;2023-04-28T12:22:26;3.40;;;3.03;;
3601;SDS011;1815;50.950;6.920;2023-04-28T12:27:32;2.67;;;2.43;;
3601;SDS011;1815;50.950;6.920;2023-04-28T12:29:58;3.33;;;2.70;;
3601;SDS011;1815;50.950;6.920;2023-04-28T12:32:40;2.70;;;2.50;;
3601;SDS011;1815;50.950;6.920;2023-04-28T12:35:09;4.83;;;3.47;;
3601;SDS011;1815;50.950;6.920;2023-04-28T12:37:35;3.23;;;2.83;;
3601;SDS011;1815;50.950;6.920;2023-04-28T12:40:03;4.10;;;3.20;;
3601;SDS011;1815;50.950;6.920;2023-04-28T12:42:30;3.60;;;3.30;;
3601;SDS011;1815;50.950;6.920;2023-04-28T12:44:56;3.80;;;3.43;;
3601;SDS011;1815;50.950;6.920;2023-04-28T12:47:22;5.20;;;3.00;;
3601;SDS011;1815;50.950;6.920;2023-04-28T12:49:48;5.60;;;2.90;;
3601;SDS011;1815;50.950;6.920;2023-04-28T12:52:17;3.53;;;2.60;;
3601;SDS011;1815;50.950;6.920;2023-04-28T12:54:44;2.50;;;2.20;;
3601;SDS011;1815;50.950;6.920;2023-04-28T12:57:16;2.53;;;2.13;;
3601;SDS011;1815;50.950;6.920;2023-04-28T12:59:43;2.33;;;1.93;;
3601;SDS011;1815;50.950;6.920;2023-04-28T13:02:11;3.00;;;1.93;;
3601;SDS011;1815;50.950;6.920;2023-04-28T13:04:37;2.97;;;2.60;;
3601;SDS011;1815;50.950;6.920;2023-04-28T13:07:03;3.37;;;2.23;;
3601;SDS011;1815;50.950;6.920;2023-04-28T13:09:31;2.77;;;2.30;;
3601;SDS011;1815;50.950;6.920;2023-04-28T13:11:57;3.10;;;2.20;;
3601;SDS011;1815;50.950;6.920;2023-04-28T13:14:28;4.60;;;2.87;;
3601;SDS011;1815;50.950;6.920;2023-04-28T13:16:54;2.67;;;2.20;;
3601;SDS011;1815;50.950;6.920;2023-04-28T13:19:19;2.53;;;2.00;;
3601;SDS011;1815;50.950;6.920;2023-04-28T13:21:45;2.33;;;2.13;;
3601;SDS011;1815;50.950;6.920;2023-04-28T13:24:11;2.60;;;1.93;;
3601;SDS011;1815;50.950;6.920;2023-04-28T13:26:40;2.37;;;2.10;;
3601;SDS011;1815;50.950;6.920;2023-04-28T13:29:08;3.17;;;1.60;;
3601;SDS011;1815;50.950;6.920;2023-04-28T13:31:35;1.93;;;1.60;;
3601;SDS011;1815;50.950;6.920;2023-04-28T13:34:01;3.07;;;2.77;;
3601;SDS011;1815;50.950;6.920;2023-04-28T13:36:28;3.27;;;2.70;;
3601;SDS011;1815;50.950;6.920;2023-04-28T13:38:54;2.97;;;2.67;;
3601;SDS011;1815;50.950;6.920;2023-04-28T13:41:20;2.90;;;2.50;;
3601;SDS011;1815;50.950;6.920;2023-04-28T13:43:46;4.10;;;2.90;;
3601;SDS011;1815;50.950;6.920;2023-04-28T13:46:12;3.30;;;2.53;;
3601;SDS011;1815;50.950;6.920;2023-04-28T13:48:38;3.07;;;2.77;;
3601;SDS011;1815;50.950;6.920;2023-04-28T13:51:06;2.53;;;2.33;;
3601;SDS011;1815;50.950;6.920;2023-04-28T13:53:32;3.40;;;2.40;;
3601;SDS011;1815;50.950;6.920;2023-04-28T13:55:59;2.70;;;2.33;;
3601;SDS011;1815;50.950;6.920;2023-04-28T13:58:26;3.40;;;3.00;;
3601;SDS011;1815;50.950;6.920;2023-04-28T14:00:53;4.10;;;2.90;;
3601;SDS011;1815;50.950;6.920;2023-04-28T14:03:20;2.47;;;1.90;;
3601;SDS011;1815;50.950;6.920;2023-04-28T14:05:47;3.90;;;2.40;;
3601;SDS011;1815;50.950;6.920;2023-04-28T14:08:17;3.60;;;3.00;;
3601;SDS011;1815;50.950;6.920;2023-04-28T14:10:43;4.13;;;3.77;;
3601;SDS011;1815;50.950;6.920;2023-04-28T14:13:09;4.30;;;3.87;;
3601;SDS011;1815;50.950;6.920;2023-04-28T14:15:35;4.00;;;3.07;;
3601;SDS011;1815;50.950;6.920;2023-04-28T14:18:01;4.93;;;3.60;;
3601;SDS011;1815;50.950;6.920;2023-04-28T14:20:27;4.83;;;3.03;;
3601;SDS011;1815;50.950;6.920;2023-04-28T14:22:53;2.53;;;1.70;;
3601;SDS011;1815;50.950;6.920;2023-04-28T14:25:19;3.47;;;1.20;;
3601;SDS011;1815;50.950;6.920;2023-04-28T14:27:48;1.90;;;1.07;;
3601;SDS011;1815;50.950;6.920;2023-04-28T14:30:15;1.60;;;0.90;;
3601;SDS011;1815;50.950;6.920;2023-04-28T14:32:41;1.63;;;0.80;;
3601;SDS011;1815;50.950;6.920;2023-04-28T14:35:07;2.03;;;0.93;;
3601;SDS011;1815;50.950;6.920;2023-04-28T14:37:33;2.40;;;0.80;;
3601;SDS011;1815;50.950;6.920;2023-04-28T14:39:59;1.50;;;0.70;;
3601;SDS011;1815;50.950;6.920;2023-04-28T14:42:30;1.70;;;0.80;;
3601;SDS011;1815;50.950;6.920;2023-04-28T14:45:07;1.67;;;0.70;;
3601;SDS011;1815;50.950;6.920;2023-04-28T14:47:33;1.40;;;0.70;;
3601;SDS011;1815;50.950;6.920;2023-04-28T14:50:01;1.60;;;1.00;;
3601;SDS011;1815;50.950;6.920;2023-04-28T14:52:26;1.93;;;0.80;;
3601;SDS011;1815;50.950;6.920;2023-04-28T14:54:55;1.50;;;0.60;;
3601;SDS011;1815;50.950;6.920;2023-04-28T14:57:22;1.57;;;0.77;;
3601;SDS011;1815;50.950;6.920;2023-04-28T14:59:49;2.53;;;0.73;;
3601;SDS011;1815;50.950;6.920;2023-04-28T15:02:18;2.43;;;1.00;;
3601;SDS011;1815;50.950;6.920;2023-04-28T15:04:46;1.60;;;0.90;;
3601;SDS011;1815;50.950;6.920;2023-04-28T15:07:12;1.50;;;0.70;;
3601;SDS011;1815;50.950;6.920;2023-04-28T15:09:38;2.33;;;1.10;;
3601;SDS011;1815;50.950;6.920;2023-04-28T15:12:04;5.00;;;3.23;;
3601;SDS011;1815;50.950;6.920;2023-04-28T15:14:30;2.30;;;1.67;;
3601;SDS011;1815;50.950;6.920;2023-04-28T15:16:56;2.20;;;1.20;;
3601;SDS011;1815;50.950;6.920;2023-04-28T15:19:23;1.40;;;0.80;;
3601;SDS011;1815;50.950;6.920;2023-04-28T15:21:49;2.23;;;0.90;;
3601;SDS011;1815;50.950;6.920;2023-04-28T15:24:17;1.50;;;0.90;;
3601;SDS011;1815;50.950;6.920;2023-04-28T15:26:44;2.83;;;1.90;;
3601;SDS011;1815;50.950;6.920;2023-04-28T15:29:10;3.13;;;2.27;;
3601;SDS011;1815;50.950;6.920;2023-04-28T15:31:36;2.97;;;1.93;;
3601;SDS011;1815;50.950;6.920;2023-04-28T15:34:04;2.40;;;1.50;;
3601;SDS011;1815;50.950;6.920;2023-04-28T15:36:29;3.83;;;2.40;;
3601;SDS011;1815;50.950;6.920;2023-04-28T15:38:56;2.67;;;1.77;;
3601;SDS011;1815;50.950;6.920;2023-04-28T15:41:22;2.53;;;1.10;;
3601;SDS011;1815;50.950;6.920;2023-04-28T15:43:48;2.67;;;1.30;;
3601;SDS011;1815;50.950;6.920;2023-04-28T15:46:14;4.60;;;1.23;;
3601;SDS011;1815;50.950;6.920;2023-04-28T15:48:44;11.90;;;2.17;;
3601;SDS011;1815;50.950;6.920;2023-04-28T15:51:10;6.60;;;1.40;;
3601;SDS011;1815;50.950;6.920;2023-04-28T15:53:36;5.40;;;1.33;;
3601;SDS011;1815;50.950;6.920;2023-04-28T15:56:03;2.00;;;1.00;;
3601;SDS011;1815;50.950;6.920;2023-04-28T15:58:29;1.80;;;1.00;;